Latest Weather Observations for Mackay

IDQ60801

Issued at 10:35 pm EST Tuesday 29 July 2014 (issued every 30 minutes, with the page automatically refreshed every 10 minutes)

About weather observations | Map of weather stations | Latest weather observations for QLD | Other Formats
Station Details ID: 033119 Name: MACKAY M.O Lat: -21.12 Lon: 149.22 Height: 30.26 m
Data from the previous 72 hours. | See also: Recent months at Mackay
Date/Time
EST
Temp
°C
App
Temp
°C
Dew
Point
Rel
Hum
%
Delta-T
°C
Wind Press
QNH
hPa
Press
MSL
hPa
Rain
since 9 am
mm
Dir
 
Spd
km/h
Gust
km/h
Spd
kts
Gust
kts
29/10:30pm 14.3 13.0 12.6 89 0.9 SW 11 13 6 7 1021.9 - 0.0
29/10:00pm 14.3 13.2 13.0 92 0.7 SW 11 13 6 7 1022.1 1022.0 0.0
29/09:30pm 15.1 14.3 13.9 92 0.7 SW 11 13 6 7 1022.0 - 0.0
29/09:00pm 16.8 16.6 14.7 87 1.2 SSE 9 13 5 7 1021.8 1021.7 0.0
29/08:30pm 17.3 16.8 14.9 86 1.4 SSE 11 15 6 8 1021.6 - 0.0
29/08:00pm 17.4 17.3 15.0 86 1.4 SE 9 15 5 8 1021.5 1021.4 0.0
29/07:30pm 17.3 17.1 14.7 85 1.5 SSE 9 13 5 7 1021.3 - 0.0
29/07:00pm 17.3 17.2 14.9 86 1.4 SSE 9 15 5 8 1021.0 1020.9 0.0
29/06:30pm 17.8 17.5 14.5 81 1.9 SE 9 13 5 7 1020.8 - 0.0
29/06:00pm 18.1 17.2 14.8 81 1.9 SSE 13 17 7 9 1020.6 1020.5 0.0
29/05:30pm 18.6 18.2 15.2 80 2.0 SE 11 15 6 8 1020.3 - 0.0
29/05:00pm 19.6 19.5 15.0 75 2.7 ESE 9 13 5 7 1020.1 1020.0 0.0
29/04:30pm 20.3 19.9 15.2 72 3.0 SE 11 19 6 10 1020.0 - 0.0
29/04:00pm 20.8 20.4 15.2 70 3.3 SE 11 17 6 9 1019.8 1019.7 0.0
29/03:30pm 20.9 20.3 15.7 72 3.1 SE 13 20 7 11 1019.8 - 0.0
29/03:00pm 21.1 20.1 15.6 71 3.3 SE 15 20 8 11 1019.9 1019.8 0.0
29/02:30pm 21.3 20.5 16.1 72 3.1 SE 15 20 8 11 1019.9 - 0.0
29/02:00pm 21.1 20.3 16.1 73 3.0 SE 15 24 8 13 1020.1 1020.0 0.0
29/01:30pm 21.3 20.1 16.1 72 3.1 SE 17 22 9 12 1020.5 - 0.0
29/01:00pm 21.3 20.7 16.7 75 2.8 SE 15 24 8 13 1020.8 1020.7 0.0
29/12:30pm 21.2 20.7 16.9 76 2.6 SE 15 22 8 12 1021.2 - 0.0
29/12:00pm 21.7 20.4 14.9 65 4.0 SSE 15 24 8 13 1021.7 1021.6 0.0
29/11:00am 21.2 20.2 15.5 70 3.4 SSE 15 20 8 11 1022.4 1022.3 0.0
29/10:30am 21.0 19.5 14.3 65 3.9 SSE 15 22 8 12 1022.7 - 0.0
29/10:00am 20.8 20.3 15.9 73 2.9 S 13 20 7 11 1022.9 1022.8 0.0
29/09:30am 19.5 19.3 15.6 78 2.3 SSW 11 15 6 8 1023.1 - 0.0
29/09:00am 17.6 16.8 15.0 85 1.5 SSW 13 17 7 9 1023.2 1023.1 0.4
29/08:30am 15.8 14.3 14.2 90 0.9 SW 15 19 8 10 1023.1 - 0.4
29/08:00am 14.6 13.3 13.7 94 0.5 SW 13 22 7 12 1022.9 1022.8 0.4
29/07:30am 13.4 11.4 12.7 95 0.4 SW 15 20 8 11 1022.8 - 0.4
29/07:00am 12.7 11.0 12.3 97 0.2 SW 13 17 7 9 1022.6 1022.5 0.4
29/06:30am 12.8 11.0 12.2 96 0.3 WSW 13 19 7 10 1022.4 - 0.4
29/06:00am 12.7 10.9 12.1 96 0.3 SW 13 17 7 9 1022.2 1022.1 0.4
29/05:30am 12.9 11.1 12.2 95 0.4 SW 13 15 7 8 1021.9 - 0.2
29/05:00am 13.1 11.4 12.4 95 0.4 SW 13 19 7 10 1021.5 1021.4 0.2
29/04:30am 13.4 11.7 12.3 93 0.6 SW 13 19 7 10 1021.2 - 0.2
29/04:00am 13.5 11.8 12.6 94 0.5 SW 13 20 7 11 1021.1 1021.0 0.2
29/03:30am 13.9 12.5 13.4 97 0.3 SW 13 17 7 9 1021.0 - 0.2
29/03:00am 14.1 12.8 13.7 97 0.2 WSW 13 17 7 9 1020.9 1020.8 0.2
29/02:30am 14.4 13.2 14.0 97 0.2 WSW 13 17 7 9 1020.9 - 0.2
29/02:00am 14.7 13.7 14.5 99 0.1 WSW 13 19 7 10 1020.9 1020.8 0.2
29/01:30am 15.4 14.7 15.4 100 0.0 SW 13 17 7 9 1021.1 - 0.2
29/01:00am 16.1 16.0 16.1 100 0.0 SW 11 13 6 7 1021.3 1021.2 0.0
29/12:47am 16.4 16.0 16.2 99 0.1 SW 13 17 7 9 1021.4 - 0.0
29/12:30am 16.4 16.5 16.4 100 0.0 SW 11 15 6 8 1021.4 - 0.0
29/12:00am 16.6 16.7 16.6 100 0.0 SW 11 15 6 8 1021.5 1021.4 0.0
 
Date/Time
EST
Temp
°C
App
Temp
°C
Dew
Point
Rel
Hum
%
Delta-T
°C
Wind Press
QNH
hPa
Press
MSL
hPa
Rain
since 9 am
mm
Dir
 
Spd
km/h
Gust
km/h
Spd
kts
Gust
kts
28/11:30pm 16.5 16.5 16.3 99 0.1 SW 11 15 6 8 1021.6 - 0.0
28/11:20pm 16.5 16.5 16.3 99 0.1 SW 11 15 6 8 1021.7 - 0.0
28/11:00pm 16.0 15.4 15.7 98 0.2 SW 13 15 7 8 1021.7 1021.6 0.0
28/10:30pm 15.6 14.9 15.4 99 0.1 SW 13 15 7 8 1021.7 - 0.0
28/10:00pm 15.9 16.1 15.7 99 0.1 SW 9 11 5 6 1021.9 1021.8 0.0
28/09:30pm 16.8 17.7 16.5 98 0.2 SW 7 9 4 5 1021.9 - 0.0
28/09:00pm 17.8 18.9 17.1 96 0.4 NE 7 9 4 5 1021.8 1021.7 0.0
28/08:30pm 17.9 19.2 17.6 98 0.2 ENE 7 11 4 6 1021.6 - 0.0
28/08:00pm 18.2 19.2 17.7 97 0.3 ENE 9 13 5 7 1021.4 1021.3 0.0
28/07:30pm 18.1 19.4 17.6 97 0.3 ENE 7 13 4 7 1021.3 - 0.0
28/07:00pm 18.2 19.5 17.5 96 0.4 ENE 7 11 4 6 1021.0 1020.9 0.0
28/06:30pm 18.3 19.2 17.6 96 0.4 ENE 9 13 5 7 1020.7 - 0.0
28/06:00pm 18.5 19.1 17.7 95 0.5 ENE 11 15 6 8 1020.6 1020.5 0.0
28/05:30pm 18.9 19.6 17.9 94 0.6 E 11 15 6 8 1020.4 - 0.0
28/05:00pm 19.4 20.5 17.9 91 0.9 E 9 15 5 8 1020.2 1020.1 0.0
28/04:30pm 19.8 20.8 17.7 88 1.3 E 9 17 5 9 1020.1 - 0.0
28/04:00pm 20.2 21.3 17.9 87 1.4 ESE 9 15 5 8 1020.0 1019.9 0.0
28/03:30pm 20.0 20.2 17.7 86 1.4 ESE 13 20 7 11 1019.8 - 0.0
28/03:00pm 20.0 19.8 17.7 86 1.4 ESE 15 20 8 11 1019.9 1019.8 0.0
28/02:30pm 20.5 20.7 17.7 84 1.7 SE 13 20 7 11 1020.0 - 0.0
28/02:00pm 20.8 20.7 17.9 83 1.8 SE 15 22 8 12 1020.2 1020.1 0.0
28/01:47pm 20.6 20.4 17.7 83 1.8 SE 15 22 8 12 1020.3 - 0.0
28/01:30pm 20.5 20.7 17.6 83 1.8 SE 13 22 7 12 1020.5 - 0.0
28/01:00pm 20.6 20.3 17.3 81 2.0 SE 15 26 8 14 1020.9 1020.8 0.0
28/12:30pm 20.9 21.1 17.6 81 2.0 SE 13 19 7 10 1021.5 - 0.0
28/12:00pm 21.0 21.6 17.8 82 2.0 SE 11 19 6 10 1022.1 1022.0 0.0
28/11:30am 21.0 20.9 17.8 82 2.0 SE 15 26 8 14 1022.5 - 0.0
28/11:00am 21.1 21.0 17.9 82 2.0 SSE 15 24 8 13 1022.9 1022.8 0.0
28/10:30am 20.6 20.8 17.7 83 1.8 SSE 13 20 7 11 1023.1 - 0.0
28/10:00am 20.1 19.9 16.6 80 2.1 SSE 13 19 7 10 1023.2 1023.1 0.0
28/09:30am 20.4 20.3 16.9 80 2.1 SSE 13 19 7 10 1023.2 - 0.0
28/09:00am 19.4 19.3 16.0 81 2.0 SSW 11 13 6 7 1023.3 1023.2 0.0
28/08:30am 17.4 17.0 15.3 87 1.2 SSW 11 15 6 8 1023.0 - 0.0
28/08:00am 15.9 15.9 14.3 90 0.9 W 7 11 4 6 1022.9 1022.8 0.0
28/07:30am 14.3 13.7 13.6 96 0.4 W 9 13 5 7 1022.5 - 0.0
28/07:00am 13.9 12.5 13.4 97 0.3 WSW 13 17 7 9 1022.2 1022.1 0.0
28/06:30am 14.2 12.5 13.5 96 0.4 SW 15 17 8 9 1021.9 - 0.0
28/06:00am 14.2 12.8 13.5 96 0.4 SW 13 17 7 9 1021.6 1021.5 0.0
28/05:30am 14.6 13.2 13.5 93 0.6 SW 13 17 7 9 1021.5 - 0.0
28/05:00am 14.6 13.4 13.9 96 0.4 SW 13 15 7 8 1021.2 1021.1 0.0
28/04:30am 15.2 14.0 14.1 93 0.6 SW 13 15 7 8 1021.1 - 0.0
28/04:01am 15.6 14.4 14.0 90 0.9 SW 13 15 7 8 1021.1 - 0.0
28/04:00am 15.6 14.4 14.0 90 0.9 SW 13 15 7 8 1021.1 1021.0 0.0
28/03:30am 15.4 14.3 14.2 92 0.7 SW 13 17 7 9 1021.1 - 0.0
28/03:00am 15.2 14.0 14.1 93 0.6 SW 13 17 7 9 1021.0 1020.9 0.0
28/02:45am 15.2 14.0 14.1 93 0.6 SW 13 17 7 9 1021.0 - 0.0
28/02:30am 15.3 14.6 14.2 93 0.6 SW 11 13 6 7 1021.1 - 0.0
28/02:00am 15.6 15.0 14.5 93 0.6 SSW 11 15 6 8 1021.3 1021.2 0.0
28/01:30am 15.7 15.0 14.3 91 0.8 SW 11 15 6 8 1021.6 - 0.0
28/01:00am 15.8 15.3 14.8 94 0.6 SW 11 13 6 7 1021.8 1021.7 0.0
28/12:30am 15.9 15.5 15.2 96 0.4 SW 11 13 6 7 1022.0 - 0.0
28/12:00am 16.2 15.9 15.5 96 0.4 SSW 11 15 6 8 1022.3 1022.2 0.0
 
Date/Time
EST
Temp
°C
App
Temp
°C
Dew
Point
Rel
Hum
%
Delta-T
°C
Wind Press
QNH
hPa
Press
MSL
hPa
Rain
since 9 am
mm
Dir
 
Spd
km/h
Gust
km/h
Spd
kts
Gust
kts
27/11:30pm 16.5 16.1 15.3 93 0.7 SW 11 13 6 7 1022.4 - 0.0
27/11:00pm 16.6 16.3 15.4 93 0.7 SW 11 13 6 7 1022.6 1022.5 0.0
27/10:30pm 16.7 16.5 15.7 94 0.6 SW 11 11 6 6 1022.7 - 0.0
27/10:00pm 17.0 17.0 16.3 96 0.4 SW 11 13 6 7 1022.7 1022.6 0.0
27/09:30pm 17.4 17.6 16.7 96 0.4 SW 11 15 6 8 1022.7 - 0.0
27/09:00pm 18.0 19.2 17.3 96 0.4 SSW 7 9 4 5 1022.5 1022.4 0.0
27/08:30pm 18.5 20.7 17.5 94 0.6 E 2 7 1 4 1022.4 - 0.0
27/08:00pm 18.2 19.4 17.4 95 0.5 ENE 7 11 4 6 1022.2 1022.1 0.0
27/07:30pm 18.0 19.2 17.3 96 0.4 NE 7 11 4 6 1021.9 - 0.0
27/07:00pm 18.1 19.3 17.4 96 0.4 NE 7 11 4 6 1021.4 1021.3 0.0
27/06:30pm 18.5 19.1 17.7 95 0.5 ENE 11 15 6 8 1021.1 - 0.0
27/06:00pm 18.8 19.2 17.3 91 0.9 E 11 15 6 8 1020.8 1020.7 0.0
27/05:30pm 19.2 19.7 17.4 89 1.1 E 11 15 6 8 1020.6 - 0.0
27/05:00pm 19.8 20.7 17.5 86 1.4 ESE 9 13 5 7 1020.5 1020.4 0.0
27/04:30pm 20.2 20.8 17.6 85 1.6 ESE 11 17 6 9 1020.4 - 0.0
27/04:00pm 20.5 21.4 17.6 83 1.8 ESE 9 19 5 10 1020.4 1020.3 0.0
27/03:30pm 21.0 21.2 17.6 81 2.1 SE 13 22 7 12 1020.4 - 0.0
27/03:00pm 20.9 20.3 17.6 81 2.0 SE 17 24 9 13 1020.5 1020.4 0.0
27/02:30pm 20.9 20.7 17.6 81 2.0 SE 15 24 8 13 1020.7 - 0.0
27/02:00pm 21.3 21.7 18.2 82 1.9 ESE 13 20 7 11 1021.0 1020.9 0.0
27/01:30pm 21.4 21.2 18.4 83 1.9 SE 17 22 9 12 1021.3 - 0.0
27/01:00pm 21.8 21.2 17.6 77 2.6 SSE 17 26 9 14 1021.6 1021.5 0.0
27/12:30pm 21.9 21.8 17.9 78 2.5 SSE 15 24 8 13 1022.0 - 0.0
27/12:00pm 21.2 19.7 17.8 81 2.1 SSE 22 28 12 15 1022.3 1022.2 0.0
27/11:30am 21.3 20.5 18.1 82 2.0 SSE 19 26 10 14 1022.9 - 0.0
27/11:00am 21.1 20.7 18.0 82 1.9 SSE 17 26 9 14 1023.1 1023.0 0.0
27/10:30am 21.3 20.5 18.1 82 2.0 SSE 19 28 10 15 1023.4 - 0.0
27/10:00am 21.0 19.8 17.6 81 2.1 SSE 20 30 11 16 1023.7 1023.6 0.0
27/09:30am 20.9 20.7 17.6 81 2.0 SSE 15 22 8 12 1023.7 - 0.0
27/09:00am 20.2 19.8 17.2 83 1.8 SSE 15 20 8 11 1023.7 1023.6 0.0
27/08:30am 19.8 19.1 17.3 85 1.5 S 17 24 9 13 1023.3 - 0.0
27/08:00am 19.1 18.3 17.1 88 1.2 S 17 24 9 13 1023.0 1022.9 0.0
27/07:30am 17.9 17.9 17.1 95 0.5 SSW 13 17 7 9 1022.8 - 0.0
27/07:00am 17.4 17.3 16.9 97 0.3 S 13 15 7 8 1022.8 1022.7 0.0
27/06:30am 17.6 17.6 17.1 97 0.3 S 13 17 7 9 1022.6 - 0.0
27/06:00am 18.2 18.2 17.2 94 0.6 S 13 17 7 9 1022.3 1022.2 0.0
27/05:30am 18.3 18.3 17.3 94 0.6 S 13 17 7 9 1022.1 - 0.0
27/05:00am 18.1 18.1 17.3 95 0.5 S 13 17 7 9 1021.9 1021.8 0.0
27/04:30am 18.1 17.8 17.4 96 0.4 S 15 19 8 10 1021.9 - 0.0
27/04:21am 18.1 17.8 17.4 96 0.4 S 15 20 8 11 1021.9 - 0.0
27/04:00am 17.9 18.0 17.4 97 0.3 S 13 17 7 9 1021.7 1021.6 0.0
27/03:30am 17.8 17.9 17.5 98 0.2 S 13 17 7 9 1021.8 - 0.0
27/03:20am 17.9 18.0 17.4 97 0.3 S 13 17 7 9 1021.8 - 0.0
27/03:02am 18.1 18.3 17.6 97 0.3 S 13 17 7 9 1022.0 - 0.0
27/03:00am 18.1 18.3 17.6 97 0.3 S 13 17 7 9 1022.0 1021.9 0.0
27/02:30am 18.2 18.7 17.5 96 0.4 S 11 15 6 8 1022.2 - 0.0
27/02:00am 18.5 18.7 17.7 95 0.5 SSE 13 17 7 9 1022.5 1022.4 0.0
27/01:30am 18.7 18.6 17.9 95 0.5 S 15 20 8 11 1022.6 - 0.0
27/01:00am 19.0 18.5 17.7 92 0.8 SSE 17 26 9 14 1023.0 1022.9 0.0
27/12:30am 19.1 18.3 17.1 88 1.2 SSE 17 28 9 15 1023.5 - 0.0
27/12:00am 19.3 18.6 17.3 88 1.2 SSE 17 22 9 12 1023.8 1023.7 0.0
 
Date/Time
EST
Temp
°C
App
Temp
°C
Dew
Point
Rel
Hum
%
Delta-T
°C
Wind Press
QNH
hPa
Press
MSL
hPa
Rain
since 9 am
mm
Dir
 
Spd
km/h
Gust
km/h
Spd
kts
Gust
kts
26/11:30pm 19.2 18.7 16.9 86 1.4 S 15 19 8 10 1024.0 - 0.0
26/11:00pm 19.1 18.2 16.9 87 1.3 S 17 20 9 11 1024.2 1024.1 0.0

Other Formats:

Comma delimited format used in spreadsheet applications
http://www.bom.gov.au/fwo/IDQ60801/IDQ60801.94367.axf

JavaScript Object Notation format (JSON) in row-major order
http://www.bom.gov.au/fwo/IDQ60801/IDQ60801.94367.json